createdAt,value
2023-04-28T00:00:55.417Z,2.91
2023-04-28T00:03:23.978Z,2.92
2023-04-28T00:05:53.560Z,2.98
2023-04-28T00:08:23.670Z,3.06
2023-04-28T00:10:51.579Z,3.07
2023-04-28T00:13:19.667Z,3.00
2023-04-28T00:15:47.592Z,2.90
2023-04-28T00:18:15.705Z,2.84
2023-04-28T00:20:43.633Z,2.80
2023-04-28T00:23:11.693Z,2.73
2023-04-28T00:25:39.644Z,2.68
2023-04-28T00:28:07.925Z,2.63
2023-04-28T00:30:36.243Z,2.62
2023-04-28T00:33:04.343Z,2.67
2023-04-28T00:35:32.448Z,2.71
2023-04-28T00:38:00.589Z,2.74
2023-04-28T00:40:35.893Z,2.74
2023-04-28T00:43:04.318Z,2.75
2023-04-28T00:45:32.512Z,2.80
2023-04-28T00:48:01.297Z,2.85
2023-04-28T00:50:29.288Z,2.85
2023-04-28T00:52:57.172Z,2.77
2023-04-28T00:55:28.006Z,2.67
2023-04-28T00:57:56.876Z,2.60
2023-04-28T01:00:24.926Z,2.61
2023-04-28T01:02:54.386Z,2.65
2023-04-28T01:05:26.288Z,2.68
2023-04-28T01:07:54.435Z,2.64
2023-04-28T01:10:22.663Z,2.61
2023-04-28T01:12:50.796Z,2.63
2023-04-28T01:15:20.707Z,2.68
2023-04-28T01:17:49.878Z,2.68
2023-04-28T01:20:18.121Z,2.63
2023-04-28T01:22:46.553Z,2.57
2023-04-28T01:25:14.873Z,2.51
2023-04-28T01:27:42.814Z,2.49
2023-04-28T01:30:11.604Z,2.54
2023-04-28T01:32:40.349Z,2.56
2023-04-28T01:35:08.545Z,2.55
2023-04-28T01:37:36.578Z,2.56
2023-04-28T01:40:05.520Z,2.52
2023-04-28T01:42:33.397Z,2.47
2023-04-28T01:45:03.799Z,2.43
2023-04-28T01:47:32.397Z,2.43
2023-04-28T01:50:00.349Z,2.43
2023-04-28T01:52:28.608Z,2.43
2023-04-28T01:54:57.121Z,2.47
2023-04-28T01:57:26.226Z,2.54
2023-04-28T01:59:54.319Z,2.55
2023-04-28T02:02:22.862Z,2.42
2023-04-28T02:04:51.799Z,2.31
2023-04-28T02:07:21.148Z,2.20
2023-04-28T02:09:49.035Z,2.19
2023-04-28T02:12:17.711Z,2.20
2023-04-28T02:14:46.196Z,2.19
2023-04-28T02:17:14.536Z,2.13
2023-04-28T02:19:44.158Z,2.06
2023-04-28T02:22:14.065Z,2.01
2023-04-28T02:24:42.035Z,2.01
2023-04-28T02:27:09.961Z,2.02
2023-04-28T02:29:37.868Z,2.03
2023-04-28T02:32:06.037Z,1.98
2023-04-28T02:34:34.096Z,1.89
2023-04-28T02:37:03.030Z,1.78
2023-04-28T02:39:31.379Z,1.68
2023-04-28T02:41:59.279Z,1.68
2023-04-28T02:44:27.323Z,1.67
2023-04-28T02:46:55.415Z,1.59
2023-04-28T02:49:24.775Z,1.47
2023-04-28T02:51:52.828Z,1.39
2023-04-28T02:54:29.793Z,1.37
2023-04-28T02:56:58.835Z,1.40
2023-04-28T02:59:27.346Z,1.41
2023-04-28T03:01:55.353Z,1.27
2023-04-28T03:04:23.462Z,1.09
2023-04-28T03:06:51.731Z,0.97
2023-04-28T03:09:19.665Z,0.89
2023-04-28T03:11:47.693Z,0.84
2023-04-28T03:14:15.894Z,0.83
2023-04-28T03:16:44.790Z,0.83
2023-04-28T03:19:12.823Z,0.81
2023-04-28T03:21:40.765Z,0.78
2023-04-28T03:24:08.699Z,0.76
2023-04-28T03:26:37.328Z,0.77
2023-04-28T03:29:05.306Z,0.80
2023-04-28T03:31:33.434Z,0.74
2023-04-28T03:34:04.493Z,0.61
2023-04-28T03:36:33.246Z,0.54
2023-04-28T03:39:07.231Z,0.51
2023-04-28T03:41:35.552Z,0.51
2023-04-28T03:44:26.900Z,0.54
2023-04-28T03:46:54.905Z,0.52
2023-04-28T03:49:23.096Z,0.51
2023-04-28T03:51:51.493Z,0.53
2023-04-28T03:54:19.562Z,0.58
2023-04-28T03:56:47.510Z,0.68
2023-04-28T03:59:17.102Z,0.78
2023-04-28T04:01:45.100Z,0.88
2023-04-28T04:04:13.281Z,1.04
2023-04-28T04:06:41.585Z,1.16
2023-04-28T04:09:10.287Z,1.28
2023-04-28T04:11:39.876Z,1.40
2023-04-28T04:14:07.803Z,1.50
2023-04-28T04:16:37.104Z,1.60
2023-04-28T04:19:05.830Z,1.72
2023-04-28T04:21:42.400Z,1.85
2023-04-28T04:24:10.319Z,1.98
2023-04-28T04:26:38.635Z,2.13
2023-04-28T04:29:20.267Z,2.29
2023-04-28T04:31:49.752Z,2.41
2023-04-28T04:34:18.482Z,2.51
2023-04-28T04:36:47.405Z,2.62
2023-04-28T04:39:15.888Z,2.73
2023-04-28T04:41:43.816Z,2.80
2023-04-28T04:44:34.884Z,2.90
2023-04-28T04:47:03.220Z,2.97
2023-04-28T04:49:31.683Z,3.10
2023-04-28T04:51:59.670Z,3.25
2023-04-28T04:54:27.942Z,3.42
2023-04-28T04:56:56.257Z,3.60
2023-04-28T04:59:37.600Z,3.79
2023-04-28T05:02:10.437Z,3.94
2023-04-28T05:04:38.968Z,4.09
2023-04-28T05:07:07.744Z,4.23
2023-04-28T05:09:36.412Z,4.38
2023-04-28T05:12:04.621Z,4.50
2023-04-28T05:14:32.628Z,4.61
2023-04-28T05:17:00.823Z,4.71
2023-04-28T05:19:35.046Z,4.79
2023-04-28T05:22:03.382Z,4.89
2023-04-28T05:24:31.965Z,4.98
2023-04-28T05:27:00.153Z,5.07
2023-04-28T05:29:28.191Z,5.14
2023-04-28T05:31:56.150Z,5.22
2023-04-28T05:34:25.008Z,5.30
2023-04-28T05:36:53.181Z,5.39
2023-04-28T05:39:23.161Z,5.49
2023-04-28T05:41:51.208Z,5.60
2023-04-28T05:44:19.149Z,5.72
2023-04-28T05:46:47.395Z,5.83
2023-04-28T05:49:16.168Z,5.95
2023-04-28T05:51:44.728Z,6.06
2023-04-28T05:54:12.719Z,6.18
2023-04-28T05:56:44.298Z,6.32
2023-04-28T05:59:12.471Z,6.42
2023-04-28T06:01:40.440Z,6.55
2023-04-28T06:04:09.161Z,6.68
2023-04-28T06:06:37.619Z,6.80
2023-04-28T06:09:06.054Z,6.93
2023-04-28T06:11:34.629Z,7.09
2023-04-28T06:14:02.690Z,7.23
2023-04-28T06:16:30.839Z,7.37
2023-04-28T06:18:58.936Z,7.45
2023-04-28T06:21:28.844Z,7.56
2023-04-28T06:23:57.906Z,7.68
2023-04-28T06:26:25.873Z,7.83
2023-04-28T06:28:53.899Z,7.92
2023-04-28T06:31:21.946Z,8.05
2023-04-28T06:33:50.539Z,8.16
2023-04-28T06:36:18.488Z,8.30
2023-04-28T06:38:47.024Z,8.40
2023-04-28T06:41:15.060Z,8.48
2023-04-28T06:43:48.963Z,8.59
2023-04-28T06:46:22.933Z,8.66
2023-04-28T06:48:50.922Z,8.72
2023-04-28T06:51:18.883Z,8.81
2023-04-28T06:53:46.824Z,8.89
2023-04-28T06:56:14.738Z,9.01
2023-04-28T06:58:42.698Z,9.15
2023-04-28T07:01:10.692Z,9.24
2023-04-28T07:03:39.500Z,9.33
2023-04-28T07:06:07.756Z,9.45
2023-04-28T07:08:37.035Z,9.62
2023-04-28T07:11:06.329Z,9.75
2023-04-28T07:13:34.334Z,9.85
2023-04-28T07:16:02.525Z,9.97
2023-04-28T07:18:30.561Z,10.10
2023-04-28T07:20:58.429Z,10.20
2023-04-28T07:23:26.380Z,10.34
2023-04-28T07:25:54.419Z,10.49
2023-04-28T07:28:22.307Z,10.61
2023-04-28T07:30:50.183Z,10.77
2023-04-28T07:33:18.066Z,10.92
2023-04-28T07:35:46.012Z,11.06
2023-04-28T07:38:13.973Z,11.22
2023-04-28T07:40:43.896Z,11.28
2023-04-28T07:43:11.831Z,11.34
2023-04-28T07:45:40.805Z,11.56
2023-04-28T07:48:08.868Z,11.72
2023-04-28T07:50:36.924Z,11.75
2023-04-28T07:53:04.930Z,11.79
2023-04-28T07:55:32.933Z,11.83
2023-04-28T07:58:00.960Z,11.96
2023-04-28T08:00:29.051Z,12.15
2023-04-28T08:02:57.953Z,12.41
2023-04-28T08:05:26.408Z,12.46
2023-04-28T08:07:54.892Z,12.54
2023-04-28T08:10:22.902Z,12.56
2023-04-28T08:12:50.813Z,12.58
2023-04-28T08:15:19.666Z,12.73
2023-04-28T08:17:47.707Z,12.89
2023-04-28T08:20:15.708Z,12.92
2023-04-28T08:22:43.719Z,12.77
2023-04-28T08:25:11.631Z,12.65
2023-04-28T08:27:40.224Z,12.59
2023-04-28T08:30:10.163Z,12.58
2023-04-28T08:32:42.391Z,12.73
2023-04-28T08:35:10.492Z,12.90
2023-04-28T08:37:38.831Z,12.97
2023-04-28T08:40:10.268Z,12.99
2023-04-28T08:42:38.450Z,13.12
2023-04-28T08:45:06.940Z,13.26
2023-04-28T08:47:40.766Z,13.37
2023-04-28T08:50:09.141Z,13.51
2023-04-28T08:52:37.119Z,13.62
2023-04-28T08:55:10.532Z,13.76
2023-04-28T08:57:41.093Z,13.90
2023-04-28T09:00:10.351Z,13.88
2023-04-28T09:02:42.159Z,13.94
2023-04-28T09:05:12.271Z,13.92
2023-04-28T09:07:41.141Z,14.01
2023-04-28T09:10:21.590Z,14.20
2023-04-28T09:12:53.420Z,14.41
2023-04-28T09:15:41.116Z,14.43
2023-04-28T09:18:14.781Z,14.43
2023-04-28T09:20:44.751Z,14.33
2023-04-28T09:23:22.777Z,14.25
2023-04-28T09:26:08.384Z,14.20
2023-04-28T09:28:36.517Z,14.29
2023-04-28T09:31:04.629Z,14.42
2023-04-28T09:33:33.190Z,14.53
2023-04-28T09:36:01.278Z,14.61
2023-04-28T09:38:29.285Z,14.59
2023-04-28T09:40:59.417Z,14.55
2023-04-28T09:43:29.026Z,14.36
2023-04-28T09:45:59.422Z,14.27
2023-04-28T09:48:40.787Z,14.17
2023-04-28T09:51:10.347Z,14.15
2023-04-28T09:53:40.265Z,14.27
2023-04-28T09:56:08.906Z,14.38
2023-04-28T09:58:41.153Z,14.52
2023-04-28T10:01:11.798Z,14.66
2023-04-28T10:03:43.227Z,14.69
2023-04-28T10:06:11.306Z,14.77
2023-04-28T10:08:40.348Z,14.74
2023-04-28T10:11:10.112Z,14.59
2023-04-28T10:13:38.276Z,14.55
2023-04-28T10:16:08.220Z,14.70
2023-04-28T10:18:37.513Z,14.84
2023-04-28T10:21:07.580Z,14.76
2023-04-28T10:23:48.133Z,14.62
2023-04-28T10:26:20.027Z,14.64
2023-04-28T10:28:49.726Z,14.91
2023-04-28T10:31:23.442Z,15.25
2023-04-28T10:33:51.502Z,15.36
2023-04-28T10:36:53.107Z,15.50
2023-04-28T10:39:21.467Z,15.36
2023-04-28T10:41:49.542Z,15.23
2023-04-28T10:44:33.316Z,15.31
2023-04-28T10:47:06.753Z,15.34
2023-04-28T10:49:57.709Z,15.25
2023-04-28T10:52:48.844Z,15.15
2023-04-28T10:55:40.355Z,15.12
2023-04-28T10:58:20.452Z,15.08
2023-04-28T11:00:48.457Z,15.32
2023-04-28T11:03:54.292Z,15.47
2023-04-28T11:06:29.063Z,15.64
2023-04-28T11:09:00.582Z,15.94
2023-04-28T11:11:35.202Z,16.25
2023-04-28T11:14:18.428Z,16.20
2023-04-28T11:17:05.468Z,16.14
2023-04-28T11:19:35.929Z,16.16
2023-04-28T11:22:15.351Z,16.28
2023-04-28T11:24:57.446Z,16.56
2023-04-28T11:27:27.100Z,16.91
2023-04-28T11:29:55.998Z,16.76
2023-04-28T11:32:33.169Z,16.70
2023-04-28T11:35:01.598Z,16.97
2023-04-28T11:37:29.539Z,16.97
2023-04-28T11:39:57.512Z,16.98
2023-04-28T11:42:27.866Z,16.99
2023-04-28T11:44:56.566Z,16.95
2023-04-28T11:47:32.977Z,16.93
2023-04-28T11:50:02.151Z,16.92
2023-04-28T11:52:30.228Z,16.85
2023-04-28T11:55:00.994Z,17.04
2023-04-28T11:57:29.073Z,17.29
2023-04-28T12:00:21.997Z,17.46
2023-04-28T12:02:51.077Z,17.60
2023-04-28T12:05:22.305Z,17.40
2023-04-28T12:07:50.525Z,17.70
2023-04-28T12:10:19.935Z,17.85
2023-04-28T12:12:52.726Z,18.11
2023-04-28T12:15:22.712Z,18.42
2023-04-28T12:17:51.778Z,18.70
2023-04-28T12:20:37.241Z,18.73
2023-04-28T12:23:06.230Z,18.64
2023-04-28T12:25:43.696Z,18.82
2023-04-28T12:28:12.091Z,19.10
2023-04-28T12:30:42.489Z,19.27
2023-04-28T12:33:29.101Z,19.57
2023-04-28T12:35:58.290Z,19.88
2023-04-28T12:38:27.264Z,20.08
2023-04-28T12:40:55.503Z,19.92
2023-04-28T12:43:24.310Z,19.43
2023-04-28T12:45:54.562Z,19.05
2023-04-28T12:48:27.349Z,18.78
2023-04-28T12:50:55.262Z,18.42
2023-04-28T12:53:23.171Z,18.36
2023-04-28T12:55:51.287Z,18.78
2023-04-28T12:58:19.248Z,19.22
2023-04-28T13:00:47.162Z,19.61
2023-04-28T13:03:16.006Z,19.93
2023-04-28T13:05:44.389Z,20.23
2023-04-28T13:08:13.680Z,20.39
2023-04-28T13:10:41.756Z,20.52
2023-04-28T13:13:09.661Z,20.80
2023-04-28T13:15:38.945Z,20.95
2023-04-28T13:18:07.264Z,21.06
2023-04-28T13:20:35.474Z,21.32
2023-04-28T13:23:03.618Z,21.53
2023-04-28T13:25:31.690Z,21.74
2023-04-28T13:27:59.700Z,21.93
2023-04-28T13:30:27.886Z,22.03
2023-04-28T13:32:57.622Z,22.09
2023-04-28T13:35:26.307Z,22.31
2023-04-28T13:38:01.681Z,22.29
2023-04-28T13:40:29.813Z,22.45
2023-04-28T13:42:57.794Z,22.70
2023-04-28T13:45:27.016Z,22.76
2023-04-28T13:47:55.146Z,22.72
2023-04-28T13:50:23.270Z,22.73
2023-04-28T13:52:51.263Z,22.86
2023-04-28T13:55:19.223Z,22.96
2023-04-28T13:57:47.396Z,22.94
2023-04-28T14:00:15.956Z,22.85
2023-04-28T14:02:44.450Z,22.86
2023-04-28T14:05:12.738Z,22.57
2023-04-28T14:07:40.769Z,22.26
2023-04-28T14:10:09.513Z,22.23
2023-04-28T14:12:38.255Z,22.59
2023-04-28T14:15:07.149Z,22.90
2023-04-28T14:17:35.549Z,22.56
2023-04-28T14:20:04.329Z,21.95
2023-04-28T14:22:32.235Z,21.77
2023-04-28T14:25:00.581Z,21.85
2023-04-28T14:27:29.443Z,21.91
2023-04-28T14:29:57.837Z,21.99
2023-04-28T14:32:26.087Z,21.88
2023-04-28T14:34:54.498Z,21.74
2023-04-28T14:37:22.567Z,21.56
2023-04-28T14:39:50.634Z,21.01
2023-04-28T14:42:18.663Z,20.65
2023-04-28T14:44:46.784Z,20.78
2023-04-28T14:47:14.964Z,20.77
2023-04-28T14:49:42.954Z,20.65
2023-04-28T14:52:10.977Z,20.61
2023-04-28T14:54:39.449Z,20.53
2023-04-28T14:57:07.529Z,20.75
2023-04-28T14:59:36.114Z,20.99
2023-04-28T15:02:04.214Z,21.06
2023-04-28T15:04:32.700Z,21.11
2023-04-28T15:07:01.343Z,21.25
2023-04-28T15:09:29.253Z,21.43
2023-04-28T15:11:57.225Z,21.17
2023-04-28T15:14:25.165Z,20.68
2023-04-28T15:16:53.046Z,20.29
2023-04-28T15:19:21.012Z,20.28
2023-04-28T15:21:49.210Z,20.55
2023-04-28T15:24:19.788Z,20.75
2023-04-28T15:26:47.895Z,20.60
2023-04-28T15:29:16.273Z,20.47
2023-04-28T15:31:45.478Z,20.38
2023-04-28T15:34:13.989Z,20.33
2023-04-28T15:36:43.778Z,20.38
2023-04-28T15:39:12.153Z,20.15
2023-04-28T15:41:40.643Z,19.90
2023-04-28T15:44:09.971Z,19.84
2023-04-28T15:46:38.174Z,19.83
2023-04-28T15:49:06.147Z,19.79
2023-04-28T15:51:34.048Z,19.64
2023-04-28T15:54:01.979Z,19.51
2023-04-28T15:56:31.147Z,19.33
2023-04-28T15:58:59.038Z,19.08
2023-04-28T16:01:27.024Z,18.90
2023-04-28T16:03:55.244Z,18.70
2023-04-28T16:06:23.536Z,18.51
2023-04-28T16:08:51.530Z,18.32
2023-04-28T16:11:20.781Z,18.15
2023-04-28T16:13:50.056Z,17.98
2023-04-28T16:16:17.964Z,17.84
2023-04-28T16:18:46.089Z,17.79
2023-04-28T16:21:17.968Z,17.66
2023-04-28T16:23:47.286Z,17.51
2023-04-28T16:26:15.268Z,17.41
2023-04-28T16:28:43.328Z,17.28
2023-04-28T16:31:11.860Z,17.12
2023-04-28T16:33:39.978Z,16.95
2023-04-28T16:36:08.611Z,16.83
2023-04-28T16:38:36.627Z,16.66
2023-04-28T16:41:04.717Z,16.42
2023-04-28T16:43:32.920Z,16.27
2023-04-28T16:46:00.994Z,16.19
2023-04-28T16:48:29.106Z,16.18
2023-04-28T16:50:57.038Z,16.25
2023-04-28T16:53:25.030Z,16.25
2023-04-28T16:55:52.922Z,16.07
2023-04-28T16:58:20.834Z,15.93
2023-04-28T17:00:48.737Z,15.74
2023-04-28T17:03:16.760Z,15.58
2023-04-28T17:05:45.034Z,15.40
2023-04-28T17:08:12.892Z,15.21
2023-04-28T17:10:40.743Z,15.03
2023-04-28T17:13:10.031Z,14.85
2023-04-28T17:15:38.764Z,14.66
2023-04-28T17:18:10.654Z,14.50
2023-04-28T17:20:39.779Z,14.35
2023-04-28T17:23:07.735Z,14.23
2023-04-28T17:25:38.698Z,14.10
2023-04-28T17:28:06.594Z,13.94
2023-04-28T17:30:38.536Z,13.82
2023-04-28T17:33:10.442Z,13.72
2023-04-28T17:35:39.501Z,13.60
2023-04-28T17:38:07.400Z,13.49
2023-04-28T17:40:35.447Z,13.39
2023-04-28T17:43:04.775Z,13.28
2023-04-28T17:45:33.315Z,13.20
2023-04-28T17:48:01.489Z,13.12
2023-04-28T17:50:30.287Z,13.01
2023-04-28T17:52:59.535Z,12.92
2023-04-28T17:55:29.067Z,12.83
2023-04-28T17:57:56.973Z,12.76
2023-04-28T18:00:24.866Z,12.67
2023-04-28T18:02:53.635Z,12.57
2023-04-28T18:05:24.468Z,12.49
2023-04-28T18:07:52.737Z,12.40
2023-04-28T18:10:20.711Z,12.32
2023-04-28T18:12:48.637Z,12.24
2023-04-28T18:15:16.942Z,12.17
2023-04-28T18:17:44.899Z,12.11
2023-04-28T18:20:13.052Z,12.05
2023-04-28T18:22:41.544Z,11.97
2023-04-28T18:25:09.845Z,11.91
2023-04-28T18:27:37.899Z,11.86
2023-04-28T18:30:06.483Z,11.83
2023-04-28T18:32:35.176Z,11.79
2023-04-28T18:35:03.320Z,11.77
2023-04-28T18:37:31.191Z,11.75
2023-04-28T18:39:59.344Z,11.74
2023-04-28T18:42:32.840Z,11.73
2023-04-28T18:45:01.151Z,11.73
2023-04-28T18:47:29.113Z,11.71
2023-04-28T18:49:57.773Z,11.70
2023-04-28T18:52:25.774Z,11.69
2023-04-28T18:54:54.136Z,11.67
2023-04-28T18:57:22.065Z,11.66
2023-04-28T18:59:50.122Z,11.63
2023-04-28T19:02:18.313Z,11.61
2023-04-28T19:04:46.532Z,11.59
2023-04-28T19:07:14.566Z,11.56
2023-04-28T19:09:43.003Z,11.54
2023-04-28T19:12:11.186Z,11.50
2023-04-28T19:14:39.110Z,11.47
2023-04-28T19:17:07.257Z,11.43
2023-04-28T19:19:35.581Z,11.38
2023-04-28T19:22:03.485Z,11.34
2023-04-28T19:24:31.390Z,11.30
2023-04-28T19:26:59.757Z,11.27
2023-04-28T19:29:27.925Z,11.24
2023-04-28T19:31:56.340Z,11.22
2023-04-28T19:34:24.485Z,11.19
2023-04-28T19:36:52.478Z,11.18
2023-04-28T19:39:20.436Z,11.14
2023-04-28T19:41:52.268Z,11.09
2023-04-28T19:44:20.651Z,11.06
2023-04-28T19:46:48.891Z,11.03
2023-04-28T19:49:19.662Z,11.00
2023-04-28T19:51:47.656Z,10.96
2023-04-28T19:54:16.718Z,10.94
2023-04-28T19:56:46.196Z,10.89
2023-04-28T19:59:14.219Z,10.86
2023-04-28T20:01:43.691Z,10.84
2023-04-28T20:04:13.014Z,10.81
2023-04-28T20:06:41.565Z,10.79
2023-04-28T20:09:10.396Z,10.75
2023-04-28T20:11:38.664Z,10.73
2023-04-28T20:14:06.724Z,10.70
2023-04-28T20:16:34.656Z,10.66
2023-04-28T20:19:02.900Z,10.63
2023-04-28T20:21:33.012Z,10.60
2023-04-28T20:24:00.895Z,10.55
2023-04-28T20:26:28.836Z,10.50
2023-04-28T20:28:58.977Z,10.43
2023-04-28T20:31:26.931Z,10.39
2023-04-28T20:33:55.198Z,10.35
2023-04-28T20:36:23.835Z,10.31
2023-04-28T20:38:51.977Z,10.27
2023-04-28T20:41:22.484Z,10.24
2023-04-28T20:43:52.630Z,10.21
2023-04-28T20:46:22.689Z,10.19
2023-04-28T20:48:50.751Z,10.18
2023-04-28T20:51:18.703Z,10.15
2023-04-28T20:53:46.674Z,10.12
2023-04-28T20:56:14.609Z,10.09
2023-04-28T20:58:42.560Z,10.06
2023-04-28T21:01:10.908Z,10.03
2023-04-28T21:03:39.147Z,9.99
2023-04-28T21:06:07.260Z,9.93
2023-04-28T21:08:35.163Z,9.83
2023-04-28T21:11:03.715Z,9.75
2023-04-28T21:13:31.598Z,9.66
2023-04-28T21:15:59.525Z,9.55
2023-04-28T21:18:27.408Z,9.47
2023-04-28T21:20:56.725Z,9.40
2023-04-28T21:23:24.598Z,9.33
2023-04-28T21:25:52.620Z,9.26
2023-04-28T21:28:20.736Z,9.18
2023-04-28T21:30:52.224Z,9.08
2023-04-28T21:33:22.305Z,8.98
2023-04-28T21:35:50.259Z,8.91
2023-04-28T21:38:18.145Z,8.84
2023-04-28T21:40:46.084Z,8.76
2023-04-28T21:43:13.957Z,8.70
2023-04-28T21:45:42.358Z,8.63
2023-04-28T21:48:11.219Z,8.57
2023-04-28T21:50:39.296Z,8.52
2023-04-28T21:53:07.470Z,8.49
2023-04-28T21:55:35.523Z,8.46
2023-04-28T21:58:03.567Z,8.43
2023-04-28T22:00:32.956Z,8.41
2023-04-28T22:03:01.115Z,8.38
2023-04-28T22:05:29.311Z,8.37
2023-04-28T22:07:57.867Z,8.34
2023-04-28T22:10:25.831Z,8.33
2023-04-28T22:12:53.724Z,8.32
2023-04-28T22:15:21.788Z,8.31
2023-04-28T22:17:50.044Z,8.30
2023-04-28T22:20:18.116Z,8.29
2023-04-28T22:22:46.205Z,8.28
2023-04-28T22:25:14.107Z,8.27
2023-04-28T22:27:42.111Z,8.27
2023-04-28T22:30:10.996Z,8.26
2023-04-28T22:32:39.039Z,8.26
2023-04-28T22:35:07.535Z,8.24
2023-04-28T22:37:35.536Z,8.22
2023-04-28T22:40:04.836Z,8.20
2023-04-28T22:42:42.741Z,8.17
2023-04-28T22:45:11.942Z,8.11
2023-04-28T22:47:41.398Z,8.07
2023-04-28T22:50:10.876Z,8.02
2023-04-28T22:52:39.000Z,7.96
2023-04-28T22:55:07.304Z,7.82
2023-04-28T22:57:35.181Z,7.73
2023-04-28T23:00:06.054Z,7.62
2023-04-28T23:02:34.090Z,7.49
2023-04-28T23:05:02.058Z,7.41
2023-04-28T23:07:29.918Z,7.34
2023-04-28T23:09:57.762Z,7.27
2023-04-28T23:12:26.641Z,7.19
2023-04-28T23:14:54.650Z,7.10
2023-04-28T23:17:22.545Z,7.04
2023-04-28T23:19:50.909Z,7.02
2023-04-28T23:22:19.103Z,7.01
2023-04-28T23:24:46.985Z,7.01
2023-04-28T23:27:14.832Z,7.04
2023-04-28T23:29:42.722Z,7.05
2023-04-28T23:32:11.095Z,7.04
2023-04-28T23:34:41.734Z,6.99
2023-04-28T23:37:10.506Z,6.99
2023-04-28T23:39:38.376Z,6.97
2023-04-28T23:42:06.304Z,6.90
2023-04-28T23:44:34.336Z,6.85
2023-04-28T23:47:02.300Z,6.81
2023-04-28T23:49:30.233Z,6.75
2023-04-28T23:51:59.554Z,6.69
2023-04-28T23:54:27.486Z,6.66
2023-04-28T23:56:55.658Z,6.65
2023-04-28T23:59:23.600Z,6.64
